Scott AFB/Midamerica Airport
KBLV : now visible

Airfield :











YOU CAN JOIN US ON...

 
LOGIN :

Register | Disclaimer

   EN    FR    IT 

 









Legend :    VFR   Marginal VFR   IFR   Intensive IFR   Very Intensive IFR
Visi :
Ceiling :
>= 8 km
>= 3000ft
5 to 8 km
1000 to 3000 ft
1500m to 5 km
500 to 1000 ft
800 to 1500m
200 to 500 ft
< 800m
< 200 ft
Symbols :   Thunderstorms  Fog  Heavy snow  Heavy precipitations  Wind > 20 kt






- Airport Elevation : 459 ft


KBLV - Scott AFB/Midamerica

CURRENT METAR :
  • 110356Z AUTO 00000KT 10SM CLR 21/20 A2993 RMK AO2 SLP134 T02050203 $

EXPIRED METARs :
  • 110256Z AUTO 07003KT 10SM SCT130 SCT150 21/20 A2993 RMK AO2 SLP134 60022 T02050203 57032 $
  • 110219Z AUTO 15009KT 10SM FEW006 20/20 A2993 RMK AO2 PRESFR SLP135 $
  • 110156Z AUTO 13010KT 10SM BKN055 20/20 A2996 RMK AO2 RAE50 TSB0057E38 SLP145 P0012 T02030198 $

TAF AMD TAF KBLV
Valid from the 11 at 03:00 until the 12 at 06:00 UTC


110321Z 1103/1206 VRB06KT 9999 SCT020 BKN050 QNH2989INS
BECMG 1202/1203 VRB06KT 8000 BR SCT020 BKN040 QNH2990INS TX31/1120Z TN19/1108Z
KZKC FIR / North America



MET'MAP, your aeronautical weather chart ! - Copyright ORBIFLY December 2007 - Disclaimer

ORBIFLY MET'MAP TEAM :

Programming & Development : Alexandra Zaïnal
Concept & original design : Baudouin d'Aumeries
Assistance for programming : Marc-Olivier Méhu
Technical & hardware support : Manuel Goepfert

Contact : metmap@orbifly.com




SOURCES & CREDITS :

   NOAA       Earth
Advisory